createdAt,value
2023-03-10T00:00:54.340Z,989.18
2023-03-10T00:01:54.498Z,989.16
2023-03-10T00:02:54.671Z,989.18
2023-03-10T00:03:54.822Z,989.21
2023-03-10T00:04:55.050Z,989.20
2023-03-10T00:05:55.254Z,989.22
2023-03-10T00:06:55.393Z,989.26
2023-03-10T00:07:55.555Z,989.18
2023-03-10T00:08:55.723Z,989.13
2023-03-10T00:09:55.884Z,989.12
2023-03-10T00:10:56.042Z,989.08
2023-03-10T00:11:56.207Z,989.04
2023-03-10T00:12:56.380Z,989.00
2023-03-10T00:13:56.530Z,989.00
2023-03-10T00:14:56.675Z,989.05
2023-03-10T00:15:56.865Z,989.00
2023-03-10T00:16:57.039Z,988.99
2023-03-10T00:17:57.200Z,988.97
2023-03-10T00:18:57.376Z,988.96
2023-03-10T00:19:57.532Z,988.94
2023-03-10T00:20:57.701Z,988.96
2023-03-10T00:21:57.864Z,988.95
2023-03-10T00:22:58.036Z,988.88
2023-03-10T00:23:58.191Z,988.89
2023-03-10T00:24:58.371Z,988.90
2023-03-10T00:25:58.532Z,988.85
2023-03-10T00:26:58.686Z,988.84
2023-03-10T00:27:58.856Z,988.81
2023-03-10T00:28:59.015Z,988.76
2023-03-10T00:29:59.160Z,988.71
2023-03-10T00:30:59.371Z,988.72
2023-03-10T00:31:59.444Z,988.69
2023-03-10T00:32:59.617Z,988.71
2023-03-10T00:33:59.765Z,988.66
2023-03-10T00:34:59.929Z,988.64
2023-03-10T00:36:00.149Z,988.64
2023-03-10T00:37:00.211Z,988.60
2023-03-10T00:38:00.370Z,988.57
2023-03-10T00:39:00.533Z,988.52
2023-03-10T00:40:00.718Z,988.53
2023-03-10T00:41:00.852Z,988.48
2023-03-10T00:42:01.019Z,988.39
2023-03-10T00:43:01.211Z,988.39
2023-03-10T00:44:01.372Z,988.41
2023-03-10T00:45:01.522Z,988.39
2023-03-10T00:46:01.748Z,988.35
2023-03-10T00:47:01.882Z,988.33
2023-03-10T00:48:02.048Z,988.28
2023-03-10T00:49:02.249Z,988.31
2023-03-10T00:50:02.387Z,988.30
2023-03-10T00:51:02.547Z,988.32
2023-03-10T00:52:02.696Z,988.27
2023-03-10T00:53:02.864Z,988.23
2023-03-10T00:54:03.017Z,988.23
2023-03-10T00:55:03.187Z,988.21
2023-03-10T00:56:03.347Z,988.19
2023-03-10T00:57:03.514Z,988.18
2023-03-10T00:58:03.666Z,988.15
2023-03-10T00:59:03.829Z,988.09
2023-03-10T01:00:03.992Z,988.10
2023-03-10T01:01:04.150Z,988.07
2023-03-10T01:02:04.352Z,988.09
2023-03-10T01:03:04.550Z,988.06
2023-03-10T01:04:04.789Z,988.02
2023-03-10T01:05:04.837Z,988.00
2023-03-10T01:06:04.992Z,987.96
2023-03-10T01:07:05.172Z,987.97
2023-03-10T01:08:05.322Z,987.94
2023-03-10T01:09:05.523Z,987.97
2023-03-10T01:10:05.671Z,987.91
2023-03-10T01:11:05.831Z,987.91
2023-03-10T01:12:05.990Z,987.86
2023-03-10T01:13:06.162Z,987.78
2023-03-10T01:14:06.307Z,987.74
2023-03-10T01:15:06.470Z,987.77
2023-03-10T01:16:06.662Z,987.74
2023-03-10T01:17:06.852Z,987.66
2023-03-10T01:18:06.997Z,987.64
2023-03-10T01:19:07.159Z,987.57
2023-03-10T01:20:07.340Z,987.53
2023-03-10T01:21:07.492Z,987.51
2023-03-10T01:22:07.671Z,987.47
2023-03-10T01:23:07.837Z,987.48
2023-03-10T01:24:07.997Z,987.44
2023-03-10T01:25:08.158Z,987.40
2023-03-10T01:26:08.305Z,987.42
2023-03-10T01:27:08.500Z,987.34
2023-03-10T01:28:08.663Z,987.34
2023-03-10T01:29:08.832Z,987.34
2023-03-10T01:30:09.008Z,987.40
2023-03-10T01:31:09.188Z,987.37
2023-03-10T01:32:09.379Z,987.36
2023-03-10T01:33:09.531Z,987.30
2023-03-10T01:34:09.690Z,987.21
2023-03-10T01:35:09.852Z,987.17
2023-03-10T01:36:10.072Z,987.15
2023-03-10T01:37:10.129Z,987.13
2023-03-10T01:38:10.298Z,987.16
2023-03-10T01:39:10.451Z,987.13
2023-03-10T01:40:10.604Z,987.11
2023-03-10T01:41:10.772Z,987.12
2023-03-10T01:42:10.927Z,987.10
2023-03-10T01:43:11.104Z,987.06
2023-03-10T01:44:11.251Z,987.02
2023-03-10T01:45:11.406Z,987.01
2023-03-10T01:46:11.592Z,986.93
2023-03-10T01:47:11.725Z,986.93
2023-03-10T01:48:11.897Z,986.92
2023-03-10T01:49:12.049Z,986.96
2023-03-10T01:50:12.201Z,986.85
2023-03-10T01:51:12.353Z,986.83
2023-03-10T01:52:12.510Z,986.83
2023-03-10T01:53:12.673Z,986.77
2023-03-10T01:54:12.827Z,986.78
2023-03-10T01:55:12.992Z,986.75
2023-03-10T01:56:13.157Z,986.73
2023-03-10T01:57:13.284Z,986.71
2023-03-10T01:58:13.449Z,986.64
2023-03-10T01:59:13.621Z,986.66
2023-03-10T02:00:13.780Z,986.61
2023-03-10T02:01:14.018Z,986.57
2023-03-10T02:02:14.112Z,986.56
2023-03-10T02:03:14.309Z,986.48
2023-03-10T02:04:14.362Z,986.49
2023-03-10T02:05:14.532Z,986.51
2023-03-10T02:06:14.679Z,986.55
2023-03-10T02:07:14.855Z,986.53
2023-03-10T02:08:15.040Z,986.48
2023-03-10T02:09:15.200Z,986.52
2023-03-10T02:10:15.370Z,986.48
2023-03-10T02:11:15.545Z,986.46
2023-03-10T02:12:15.717Z,986.41
2023-03-10T02:13:15.872Z,986.31
2023-03-10T02:14:16.030Z,986.19
2023-03-10T02:15:16.197Z,986.14
2023-03-10T02:16:16.398Z,986.06
2023-03-10T02:17:16.569Z,986.09
2023-03-10T02:18:16.744Z,986.14
2023-03-10T02:19:16.916Z,986.20
2023-03-10T02:20:17.084Z,986.26
2023-03-10T02:21:17.258Z,986.19
2023-03-10T02:22:17.450Z,986.13
2023-03-10T02:23:17.643Z,986.05
2023-03-10T02:24:17.800Z,986.01
2023-03-10T02:25:17.997Z,985.94
2023-03-10T02:26:18.186Z,985.87
2023-03-10T02:27:18.440Z,985.83
2023-03-10T02:28:18.553Z,985.80
2023-03-10T02:29:18.597Z,985.82
2023-03-10T02:30:18.767Z,985.76
2023-03-10T02:31:19.069Z,985.76
2023-03-10T02:32:19.179Z,985.65
2023-03-10T02:33:19.300Z,985.66
2023-03-10T02:34:19.377Z,985.63
2023-03-10T02:35:19.534Z,985.58
2023-03-10T02:36:19.684Z,985.59
2023-03-10T02:37:19.870Z,985.64
2023-03-10T02:38:20.068Z,985.67
2023-03-10T02:39:20.344Z,985.69
2023-03-10T02:40:20.501Z,985.63
2023-03-10T02:41:20.570Z,985.54
2023-03-10T02:42:20.730Z,985.52
2023-03-10T02:43:20.938Z,985.52
2023-03-10T02:44:21.014Z,985.47
2023-03-10T02:45:21.290Z,985.47
2023-03-10T02:46:21.384Z,985.41
2023-03-10T02:47:21.538Z,985.49
2023-03-10T02:48:21.708Z,985.49
2023-03-10T02:49:21.886Z,985.51
2023-03-10T02:50:22.019Z,985.49
2023-03-10T02:51:22.192Z,985.37
2023-03-10T02:52:22.370Z,985.32
2023-03-10T02:53:22.532Z,985.28
2023-03-10T02:54:22.680Z,985.32
2023-03-10T02:55:22.842Z,985.38
2023-03-10T02:56:22.993Z,985.38
2023-03-10T02:57:23.172Z,985.29
2023-03-10T02:58:23.322Z,985.25
2023-03-10T02:59:23.491Z,985.15
2023-03-10T03:00:23.633Z,985.13
2023-03-10T03:01:23.881Z,985.14
2023-03-10T03:02:23.907Z,985.11
2023-03-10T03:03:24.096Z,985.08
2023-03-10T03:04:24.254Z,985.04
2023-03-10T03:05:24.427Z,985.04
2023-03-10T03:06:24.560Z,985.01
2023-03-10T03:07:24.716Z,985.00
2023-03-10T03:08:24.973Z,984.97
2023-03-10T03:09:25.022Z,985.00
2023-03-10T03:10:25.230Z,985.03
2023-03-10T03:11:25.311Z,985.04
2023-03-10T03:12:25.460Z,985.04
2023-03-10T03:13:25.636Z,984.94
2023-03-10T03:14:25.798Z,984.91
2023-03-10T03:15:25.965Z,984.89
2023-03-10T03:16:26.171Z,984.87
2023-03-10T03:17:26.298Z,984.87
2023-03-10T03:18:26.473Z,984.83
2023-03-10T03:19:29.378Z,984.76
2023-03-10T03:20:26.799Z,984.82
2023-03-10T03:21:27.068Z,984.87
2023-03-10T03:22:27.123Z,984.81
2023-03-10T03:23:27.291Z,984.83
2023-03-10T03:24:27.456Z,984.77
2023-03-10T03:25:27.637Z,984.76
2023-03-10T03:26:27.790Z,984.73
2023-03-10T03:27:27.958Z,984.75
2023-03-10T03:28:28.124Z,984.75
2023-03-10T03:29:28.294Z,984.73
2023-03-10T03:30:28.470Z,984.76
2023-03-10T03:31:35.653Z,984.78
2023-03-10T03:32:28.867Z,984.78
2023-03-10T03:33:31.623Z,984.75
2023-03-10T03:34:29.922Z,984.67
2023-03-10T03:35:29.355Z,984.57
2023-03-10T03:36:29.502Z,984.51
2023-03-10T03:37:29.692Z,984.50
2023-03-10T03:38:29.857Z,984.45
2023-03-10T03:39:30.101Z,984.40
2023-03-10T03:40:30.153Z,984.41
2023-03-10T03:41:30.319Z,984.35
2023-03-10T03:42:30.480Z,984.27
2023-03-10T03:43:30.647Z,984.28
2023-03-10T03:44:30.802Z,984.30
2023-03-10T03:45:30.971Z,984.34
2023-03-10T03:46:31.176Z,984.33
2023-03-10T03:47:31.345Z,984.33
2023-03-10T03:48:31.522Z,984.33
2023-03-10T03:49:31.691Z,984.25
2023-03-10T03:50:31.847Z,984.24
2023-03-10T03:51:32.013Z,984.15
2023-03-10T03:52:32.159Z,984.07
2023-03-10T03:53:32.337Z,984.06
2023-03-10T03:54:32.500Z,984.01
2023-03-10T03:55:32.663Z,984.00
2023-03-10T03:56:32.823Z,984.01
2023-03-10T03:57:32.994Z,984.00
2023-03-10T03:58:33.161Z,983.95
2023-03-10T03:59:33.343Z,983.97
2023-03-10T04:00:33.491Z,983.98
2023-03-10T04:01:33.671Z,983.94
2023-03-10T04:02:33.863Z,983.91
2023-03-10T04:03:34.052Z,983.91
2023-03-10T04:04:34.182Z,983.85
2023-03-10T04:05:34.341Z,983.82
2023-03-10T04:06:34.488Z,983.81
2023-03-10T04:07:34.653Z,983.75
2023-03-10T04:08:34.804Z,983.77
2023-03-10T04:09:34.961Z,983.75
2023-03-10T04:10:35.108Z,983.72
2023-03-10T04:11:35.278Z,983.70
2023-03-10T04:12:35.422Z,983.76
2023-03-10T04:13:35.595Z,983.70
2023-03-10T04:14:35.742Z,983.69
2023-03-10T04:15:35.938Z,983.72
2023-03-10T04:16:36.020Z,983.78
2023-03-10T04:17:36.184Z,983.74
2023-03-10T04:18:36.331Z,983.77
2023-03-10T04:19:36.492Z,983.78
2023-03-10T04:20:36.668Z,983.80
2023-03-10T04:21:36.823Z,983.75
2023-03-10T04:22:36.977Z,983.73
2023-03-10T04:23:37.151Z,983.69
2023-03-10T04:24:37.303Z,983.74
2023-03-10T04:25:37.474Z,983.68
2023-03-10T04:26:37.620Z,983.66
2023-03-10T04:27:37.780Z,983.66
2023-03-10T04:28:37.955Z,983.70
2023-03-10T04:29:38.128Z,983.70
2023-03-10T04:30:38.318Z,983.68
2023-03-10T04:31:38.636Z,983.65
2023-03-10T04:32:38.716Z,983.63
2023-03-10T04:33:38.773Z,983.63
2023-03-10T04:34:38.962Z,983.59
2023-03-10T04:35:39.164Z,983.60
2023-03-10T04:36:39.311Z,983.60
2023-03-10T04:37:39.482Z,983.61
2023-03-10T04:38:39.644Z,983.59
2023-03-10T04:39:39.809Z,983.65
2023-03-10T04:40:39.981Z,983.62
2023-03-10T04:41:40.182Z,983.55
2023-03-10T04:42:40.356Z,983.50
2023-03-10T04:43:42.693Z,983.52
2023-03-10T04:44:40.641Z,983.51
2023-03-10T04:45:40.792Z,983.51
2023-03-10T04:46:41.009Z,983.49
2023-03-10T04:47:41.058Z,983.46
2023-03-10T04:48:41.252Z,983.50
2023-03-10T04:49:41.409Z,983.46
2023-03-10T04:50:41.580Z,983.45
2023-03-10T04:51:41.735Z,983.45
2023-03-10T04:52:41.908Z,983.36
2023-03-10T04:53:42.094Z,983.37
2023-03-10T04:54:42.244Z,983.29
2023-03-10T04:55:42.391Z,983.27
2023-03-10T04:56:42.566Z,983.28
2023-03-10T04:57:42.738Z,983.27
2023-03-10T04:58:42.954Z,983.26
2023-03-10T04:59:43.023Z,983.26
2023-03-10T05:01:00.374Z,983.19
2023-03-10T05:01:44.413Z,983.19
2023-03-10T05:02:43.484Z,983.14
2023-03-10T05:03:43.687Z,983.12
2023-03-10T05:04:43.961Z,983.11
2023-03-10T05:05:44.052Z,983.14
2023-03-10T05:06:45.182Z,983.11
2023-03-10T05:07:44.364Z,983.06
2023-03-10T05:08:44.566Z,983.04
2023-03-10T05:09:44.758Z,983.03
2023-03-10T05:10:44.961Z,983.01
2023-03-10T05:11:45.156Z,982.99
2023-03-10T05:12:45.356Z,983.05
2023-03-10T05:13:45.563Z,982.98
2023-03-10T05:14:45.787Z,982.97
2023-03-10T05:15:45.934Z,982.95
2023-03-10T05:16:46.040Z,982.90
2023-03-10T05:17:48.830Z,982.94
2023-03-10T05:18:46.405Z,982.90
2023-03-10T05:19:46.596Z,982.84
2023-03-10T05:20:46.795Z,982.82
2023-03-10T05:21:46.994Z,982.79
2023-03-10T05:22:47.167Z,982.81
2023-03-10T05:23:47.347Z,982.84
2023-03-10T05:24:47.512Z,982.85
2023-03-10T05:25:47.682Z,982.88
2023-03-10T05:26:47.862Z,982.86
2023-03-10T05:27:48.037Z,982.83
2023-03-10T05:28:48.209Z,982.85
2023-03-10T05:29:48.370Z,982.87
2023-03-10T05:30:48.549Z,982.83
2023-03-10T05:31:48.773Z,982.80
2023-03-10T05:32:48.916Z,982.78
2023-03-10T05:33:48.974Z,982.75
2023-03-10T05:34:49.154Z,982.75
2023-03-10T05:35:49.333Z,982.71
2023-03-10T05:36:49.493Z,982.71
2023-03-10T05:37:49.661Z,982.73
2023-03-10T05:38:49.875Z,982.72
2023-03-10T05:39:50.038Z,982.70
2023-03-10T05:40:50.224Z,982.70
2023-03-10T05:41:50.393Z,982.71
2023-03-10T05:42:50.568Z,982.67
2023-03-10T05:43:50.769Z,982.67
2023-03-10T05:44:50.928Z,982.64
2023-03-10T05:45:51.088Z,982.58
2023-03-10T05:46:51.326Z,982.60
2023-03-10T05:47:51.361Z,982.55
2023-03-10T05:48:51.564Z,982.54
2023-03-10T05:49:51.729Z,982.50
2023-03-10T05:50:51.963Z,982.51
2023-03-10T05:51:52.083Z,982.52
2023-03-10T05:52:52.265Z,982.48
2023-03-10T05:53:52.445Z,982.47
2023-03-10T05:54:52.621Z,982.49
2023-03-10T05:55:52.826Z,982.47
2023-03-10T05:56:53.002Z,982.46
2023-03-10T05:57:53.183Z,982.45
2023-03-10T05:58:53.391Z,982.41
2023-03-10T05:59:53.551Z,982.42
2023-03-10T06:00:53.773Z,982.45
2023-03-10T06:01:53.931Z,982.46
2023-03-10T06:02:54.147Z,982.44
2023-03-10T06:03:54.407Z,982.47
2023-03-10T06:04:54.472Z,982.50
2023-03-10T06:05:54.668Z,982.50
2023-03-10T06:06:54.865Z,982.48
2023-03-10T06:07:55.034Z,982.46
2023-03-10T06:08:55.240Z,982.49
2023-03-10T06:09:55.399Z,982.53
2023-03-10T06:10:55.596Z,982.55
2023-03-10T06:11:55.738Z,982.54
2023-03-10T06:12:55.918Z,982.53
2023-03-10T06:13:56.120Z,982.53
2023-03-10T06:14:56.297Z,982.48
2023-03-10T06:15:56.494Z,982.49
2023-03-10T06:16:56.697Z,982.54
2023-03-10T06:17:56.879Z,982.50
2023-03-10T06:18:57.113Z,982.50
2023-03-10T06:19:57.305Z,982.44
2023-03-10T06:20:57.491Z,982.42
2023-03-10T06:21:57.656Z,982.45
2023-03-10T06:22:57.835Z,982.42
2023-03-10T06:23:58.036Z,982.46
2023-03-10T06:24:58.224Z,982.45
2023-03-10T06:25:58.390Z,982.42
2023-03-10T06:26:58.583Z,982.44
2023-03-10T06:27:58.757Z,982.40
2023-03-10T06:28:58.961Z,982.45
2023-03-10T06:29:59.136Z,982.40
2023-03-10T06:30:59.316Z,982.33
2023-03-10T06:31:59.523Z,982.30
2023-03-10T06:32:59.746Z,982.33
2023-03-10T06:34:00.797Z,982.35
2023-03-10T06:34:59.944Z,982.37
2023-03-10T06:36:00.208Z,982.32
2023-03-10T06:37:00.253Z,982.39
2023-03-10T06:38:00.418Z,982.30
2023-03-10T06:39:00.605Z,982.30
2023-03-10T06:40:00.787Z,982.42
2023-03-10T06:41:00.954Z,982.38
2023-03-10T06:42:01.132Z,982.36
2023-03-10T06:43:01.283Z,982.33
2023-03-10T06:44:01.461Z,982.32
2023-03-10T06:45:01.652Z,982.31
2023-03-10T06:46:01.852Z,982.26
2023-03-10T06:47:02.023Z,982.29
2023-03-10T06:48:02.192Z,982.32
2023-03-10T06:49:02.394Z,982.28
2023-03-10T06:50:02.551Z,982.28
2023-03-10T06:51:02.736Z,982.26
2023-03-10T06:52:02.909Z,982.25
2023-03-10T06:53:03.068Z,982.28
2023-03-10T06:54:03.256Z,982.29
2023-03-10T06:55:03.435Z,982.27
2023-03-10T06:56:03.594Z,982.26
2023-03-10T06:57:03.760Z,982.26
2023-03-10T06:58:03.943Z,982.26
2023-03-10T06:59:04.140Z,982.21
2023-03-10T07:00:04.301Z,982.23
2023-03-10T07:01:04.526Z,982.20
2023-03-10T07:02:04.662Z,982.22
2023-03-10T07:03:04.832Z,982.22
2023-03-10T07:04:05.031Z,982.25
2023-03-10T07:05:05.299Z,982.22
2023-03-10T07:06:05.366Z,982.25
2023-03-10T07:07:05.528Z,982.24
2023-03-10T07:08:05.754Z,982.22
2023-03-10T07:09:05.844Z,982.28
2023-03-10T07:10:08.174Z,982.23
2023-03-10T07:11:06.197Z,982.14
2023-03-10T07:12:06.350Z,982.11
2023-03-10T07:13:06.525Z,982.06
2023-03-10T07:14:06.700Z,982.06
2023-03-10T07:15:06.876Z,982.10
2023-03-10T07:16:07.043Z,982.10
2023-03-10T07:17:07.300Z,982.10
2023-03-10T07:18:07.409Z,982.12
2023-03-10T07:19:07.589Z,982.10
2023-03-10T07:20:07.735Z,982.13
2023-03-10T07:21:07.924Z,982.17
2023-03-10T07:22:10.343Z,982.18
2023-03-10T07:23:08.168Z,982.25
2023-03-10T07:24:08.363Z,982.21
2023-03-10T07:25:08.443Z,982.18
2023-03-10T07:26:08.599Z,982.15
2023-03-10T07:27:08.762Z,982.18
2023-03-10T07:28:08.922Z,982.20
2023-03-10T07:29:09.105Z,982.16
2023-03-10T07:30:09.249Z,982.14
2023-03-10T07:31:09.524Z,982.12
2023-03-10T07:32:09.584Z,982.15
2023-03-10T07:33:09.711Z,982.16
2023-03-10T07:34:09.886Z,982.16
2023-03-10T07:35:10.062Z,982.21
2023-03-10T07:36:10.286Z,982.18
2023-03-10T07:37:10.335Z,982.14
2023-03-10T07:38:10.548Z,982.12
2023-03-10T07:39:10.623Z,982.13
2023-03-10T07:40:10.775Z,982.11
2023-03-10T07:41:10.939Z,982.15
2023-03-10T07:42:11.078Z,982.12
2023-03-10T07:43:11.238Z,982.16
2023-03-10T07:44:11.415Z,982.16
2023-03-10T07:45:11.566Z,982.16
2023-03-10T07:46:11.732Z,982.13
2023-03-10T07:47:11.873Z,982.10
2023-03-10T07:48:12.895Z,982.13
2023-03-10T07:49:12.147Z,982.10
2023-03-10T07:50:12.292Z,982.08
2023-03-10T07:51:12.492Z,982.08
2023-03-10T07:52:12.629Z,982.10
2023-03-10T07:53:12.783Z,982.08
2023-03-10T07:54:12.977Z,982.05
2023-03-10T07:55:13.116Z,982.09
2023-03-10T07:56:13.263Z,982.09
2023-03-10T07:57:13.902Z,982.05
2023-03-10T07:58:13.486Z,982.05
2023-03-10T07:59:13.667Z,982.05
2023-03-10T08:00:13.806Z,982.03
2023-03-10T08:01:13.976Z,982.06
2023-03-10T08:02:14.096Z,982.04
2023-03-10T08:03:14.253Z,982.06
2023-03-10T08:04:14.582Z,982.04
2023-03-10T08:05:14.642Z,982.06
2023-03-10T08:06:14.680Z,982.02
2023-03-10T08:07:14.832Z,982.03
2023-03-10T08:08:15.527Z,982.09
2023-03-10T08:09:15.128Z,982.06
2023-03-10T08:10:15.247Z,982.02
2023-03-10T08:11:15.410Z,982.01
2023-03-10T08:12:15.518Z,982.02
2023-03-10T08:13:15.672Z,981.96
2023-03-10T08:14:16.290Z,981.98
2023-03-10T08:15:15.972Z,981.88
2023-03-10T08:16:16.665Z,981.91
2023-03-10T08:17:16.282Z,981.95
2023-03-10T08:18:16.386Z,981.98
2023-03-10T08:19:16.523Z,981.96
2023-03-10T08:20:16.632Z,981.92
2023-03-10T08:21:16.728Z,981.88
2023-03-10T08:22:16.827Z,981.80
2023-03-10T08:23:16.936Z,981.87
2023-03-10T08:24:17.070Z,982.04
2023-03-10T08:25:17.163Z,982.03
2023-03-10T08:26:17.233Z,981.97
2023-03-10T08:27:17.319Z,981.92
2023-03-10T08:28:17.411Z,982.03
2023-03-10T08:29:17.495Z,982.00
2023-03-10T08:30:17.573Z,981.94
2023-03-10T08:31:17.709Z,981.98
2023-03-10T08:32:17.845Z,981.99
2023-03-10T08:33:17.914Z,982.00
2023-03-10T08:34:18.015Z,981.95
2023-03-10T08:35:18.137Z,981.98
2023-03-10T08:36:18.264Z,982.01
2023-03-10T08:37:18.329Z,981.99
2023-03-10T08:38:18.542Z,981.92
2023-03-10T08:39:18.641Z,982.00
2023-03-10T08:40:18.757Z,981.99
2023-03-10T08:41:19.148Z,981.94
2023-03-10T08:42:18.979Z,982.03
2023-03-10T08:43:19.061Z,982.02
2023-03-10T08:44:19.170Z,981.98
2023-03-10T08:45:19.297Z,982.04
2023-03-10T08:46:19.988Z,982.03
2023-03-10T08:47:19.511Z,982.01
2023-03-10T08:48:19.679Z,982.00
2023-03-10T08:49:19.777Z,982.04
2023-03-10T08:50:19.867Z,982.00
2023-03-10T08:51:20.243Z,982.05
2023-03-10T08:52:20.082Z,981.99
2023-03-10T08:53:20.149Z,982.07
2023-03-10T08:54:20.256Z,982.03
2023-03-10T08:55:20.293Z,982.05
2023-03-10T08:56:20.734Z,982.08
2023-03-10T08:57:20.551Z,982.10
2023-03-10T08:58:20.750Z,982.12
2023-03-10T08:59:20.809Z,982.06
2023-03-10T09:00:21.013Z,982.11
2023-03-10T09:01:21.052Z,982.06
2023-03-10T09:02:21.281Z,982.06
2023-03-10T09:03:21.311Z,982.04
2023-03-10T09:04:21.376Z,981.95
2023-03-10T09:05:21.911Z,981.99
2023-03-10T09:06:21.593Z,982.02
2023-03-10T09:07:21.765Z,982.03
2023-03-10T09:08:21.790Z,982.03
2023-03-10T09:09:21.933Z,982.00
2023-03-10T09:10:22.051Z,982.07
2023-03-10T09:11:22.133Z,982.09
2023-03-10T09:12:22.259Z,982.12
2023-03-10T09:13:22.368Z,982.18
2023-03-10T09:14:22.488Z,982.17
2023-03-10T09:15:22.594Z,982.18
2023-03-10T09:16:22.753Z,982.20
2023-03-10T09:17:22.846Z,982.15
2023-03-10T09:18:22.946Z,982.20
2023-03-10T09:19:23.079Z,982.30
2023-03-10T09:20:23.176Z,982.24
2023-03-10T09:21:23.275Z,982.32
2023-03-10T09:22:23.374Z,982.32
2023-03-10T09:23:23.487Z,982.31
2023-03-10T09:24:23.614Z,982.33
2023-03-10T09:25:23.714Z,982.27
2023-03-10T09:26:23.837Z,982.24
2023-03-10T09:27:23.944Z,982.24
2023-03-10T09:28:24.065Z,982.25
2023-03-10T09:29:41.794Z,982.23
2023-03-10T09:30:25.234Z,982.22
2023-03-10T09:32:22.767Z,982.20
2023-03-10T09:33:22.753Z,982.23
2023-03-10T09:34:22.884Z,982.23
2023-03-10T09:35:23.101Z,982.20
2023-03-10T09:36:23.200Z,982.22
2023-03-10T09:37:23.218Z,982.21
2023-03-10T09:38:23.361Z,982.23
2023-03-10T09:39:23.513Z,982.17
2023-03-10T09:40:23.740Z,982.18
2023-03-10T09:41:23.745Z,982.27
2023-03-10T09:42:36.423Z,982.24
2023-03-10T09:43:24.959Z,982.25
2023-03-10T09:44:24.106Z,982.26
2023-03-10T09:45:24.238Z,982.26
2023-03-10T09:46:24.385Z,982.27
2023-03-10T09:47:24.496Z,982.25
2023-03-10T09:48:26.360Z,982.24
2023-03-10T09:49:24.802Z,982.29
2023-03-10T09:50:24.948Z,982.35
2023-03-10T09:51:25.089Z,982.33
2023-03-10T09:52:25.221Z,982.39
2023-03-10T09:53:25.358Z,982.43
2023-03-10T09:54:25.512Z,982.42
2023-03-10T09:55:25.666Z,982.45
2023-03-10T09:56:25.802Z,982.41
2023-03-10T09:57:25.944Z,982.46
2023-03-10T09:58:26.087Z,982.44
2023-03-10T09:59:26.240Z,982.48
2023-03-10T10:00:26.379Z,982.47
2023-03-10T10:01:26.523Z,982.46
2023-03-10T10:02:26.657Z,982.47
2023-03-10T10:03:26.792Z,982.48
2023-03-10T10:04:27.005Z,982.51
2023-03-10T10:05:27.012Z,982.54
2023-03-10T10:06:28.688Z,982.53
2023-03-10T10:07:27.299Z,982.54
2023-03-10T10:08:28.947Z,982.57
2023-03-10T10:09:27.627Z,982.55
2023-03-10T10:10:27.754Z,982.52
2023-03-10T10:11:27.887Z,982.53
2023-03-10T10:12:28.024Z,982.53
2023-03-10T10:13:28.149Z,982.53
2023-03-10T10:14:30.544Z,982.51
2023-03-10T10:15:28.366Z,982.52
2023-03-10T10:16:34.610Z,982.51
2023-03-10T10:17:29.684Z,982.53
2023-03-10T10:18:28.913Z,982.53
2023-03-10T10:19:28.880Z,982.56
2023-03-10T10:20:29.080Z,982.53
2023-03-10T10:21:40.427Z,982.57
2023-03-10T10:22:30.305Z,982.58
2023-03-10T10:23:29.453Z,982.56
2023-03-10T10:24:29.613Z,982.62
2023-03-10T10:25:29.748Z,982.63
2023-03-10T10:26:29.900Z,982.62
2023-03-10T10:27:30.041Z,982.69
2023-03-10T10:28:30.190Z,982.75
2023-03-10T10:29:30.298Z,982.78
2023-03-10T10:30:30.514Z,982.71
2023-03-10T10:31:30.610Z,982.71
2023-03-10T10:32:30.687Z,982.71
2023-03-10T10:33:30.793Z,982.72
2023-03-10T10:34:30.951Z,982.76
2023-03-10T10:35:31.074Z,982.77
2023-03-10T10:36:31.242Z,982.75
2023-03-10T10:37:31.373Z,982.74
2023-03-10T10:38:31.513Z,982.72
2023-03-10T10:39:31.679Z,982.81
2023-03-10T10:40:31.820Z,982.77
2023-03-10T10:41:31.955Z,982.82
2023-03-10T10:42:32.084Z,982.82
2023-03-10T10:43:33.616Z,982.83
2023-03-10T10:44:32.426Z,982.79
2023-03-10T10:45:32.564Z,982.77
2023-03-10T10:46:32.844Z,982.78
2023-03-10T10:47:32.890Z,982.80
2023-03-10T10:48:32.995Z,982.78
2023-03-10T10:49:33.146Z,982.89
2023-03-10T10:50:33.281Z,982.93
2023-03-10T10:51:33.420Z,982.89
2023-03-10T10:52:33.560Z,982.84
2023-03-10T10:53:33.682Z,982.89
2023-03-10T10:54:33.865Z,982.91
2023-03-10T10:55:34.011Z,982.89
2023-03-10T10:56:34.150Z,982.87
2023-03-10T10:57:34.275Z,982.85
2023-03-10T10:58:34.433Z,982.87
2023-03-10T10:59:34.565Z,982.86
2023-03-10T11:00:34.711Z,982.89
2023-03-10T11:01:34.872Z,982.85
2023-03-10T11:02:35.131Z,982.84
2023-03-10T11:03:35.128Z,982.87
2023-03-10T11:04:35.321Z,982.90
2023-03-10T11:05:35.432Z,982.93
2023-03-10T11:06:35.558Z,982.95
2023-03-10T11:07:35.690Z,983.02
2023-03-10T11:08:35.832Z,983.03
2023-03-10T11:09:35.978Z,982.98
2023-03-10T11:10:36.119Z,982.99
2023-03-10T11:11:36.278Z,982.97
2023-03-10T11:12:36.461Z,982.97
2023-03-10T11:13:36.576Z,982.95
2023-03-10T11:14:36.725Z,982.94
2023-03-10T11:15:36.938Z,982.90
2023-03-10T11:16:36.994Z,982.90
2023-03-10T11:17:37.134Z,982.84
2023-03-10T11:18:37.273Z,982.86
2023-03-10T11:19:37.423Z,982.89
2023-03-10T11:20:37.554Z,982.89
2023-03-10T11:21:37.690Z,982.88
2023-03-10T11:22:37.818Z,982.88
2023-03-10T11:23:37.969Z,982.95
2023-03-10T11:24:38.143Z,982.94
2023-03-10T11:25:38.292Z,982.98
2023-03-10T11:26:38.412Z,982.96
2023-03-10T11:27:38.568Z,982.91
2023-03-10T11:28:38.692Z,982.93
2023-03-10T11:29:38.928Z,982.93
2023-03-10T11:30:39.105Z,982.95
2023-03-10T11:31:39.201Z,982.97
2023-03-10T11:32:39.379Z,982.92
2023-03-10T11:33:39.439Z,982.91
2023-03-10T11:34:39.600Z,982.92
2023-03-10T11:35:39.750Z,982.88
2023-03-10T11:36:53.263Z,982.97
2023-03-10T11:37:41.020Z,982.96
2023-03-10T11:38:40.223Z,982.99
2023-03-10T11:39:40.293Z,983.02
2023-03-10T11:40:40.429Z,983.01
2023-03-10T11:41:40.572Z,982.96
2023-03-10T11:42:40.745Z,982.95
2023-03-10T11:43:40.911Z,982.98
2023-03-10T11:44:41.057Z,982.92
2023-03-10T11:45:41.221Z,982.96
2023-03-10T11:46:41.444Z,982.92
2023-03-10T11:47:42.059Z,982.89
2023-03-10T11:48:41.701Z,982.92
2023-03-10T11:49:41.870Z,982.94
2023-03-10T11:50:42.018Z,982.99
2023-03-10T11:51:42.198Z,982.98
2023-03-10T11:52:42.344Z,982.94
2023-03-10T11:53:42.496Z,982.98
2023-03-10T11:54:42.653Z,982.90
2023-03-10T11:55:42.804Z,982.89
2023-03-10T11:56:42.969Z,982.91
2023-03-10T11:57:43.127Z,982.92
2023-03-10T11:58:43.327Z,982.90
2023-03-10T11:59:43.479Z,982.93
2023-03-10T12:00:43.615Z,982.92
2023-03-10T12:01:43.773Z,982.95
2023-03-10T12:02:43.903Z,982.95
2023-03-10T12:03:44.137Z,982.92
2023-03-10T12:04:44.220Z,982.95
2023-03-10T12:05:44.402Z,982.94
2023-03-10T12:06:44.516Z,982.97
2023-03-10T12:07:44.652Z,983.01
2023-03-10T12:08:44.783Z,983.06
2023-03-10T12:09:44.958Z,983.06
2023-03-10T12:10:45.090Z,983.07
2023-03-10T12:11:45.231Z,983.03
2023-03-10T12:12:45.407Z,983.04
2023-03-10T12:13:45.559Z,983.06
2023-03-10T12:14:45.732Z,983.04
2023-03-10T12:15:45.892Z,983.05
2023-03-10T12:16:46.044Z,983.02
2023-03-10T12:17:46.216Z,982.94
2023-03-10T12:18:46.350Z,982.94
2023-03-10T12:19:46.568Z,982.99
2023-03-10T12:20:46.606Z,982.92
2023-03-10T12:21:46.753Z,982.93
2023-03-10T12:22:46.909Z,982.88
2023-03-10T12:23:47.037Z,982.88
2023-03-10T12:24:47.218Z,982.91
2023-03-10T12:25:47.350Z,982.92
2023-03-10T12:26:47.526Z,982.96
2023-03-10T12:27:47.661Z,982.93
2023-03-10T12:28:47.810Z,982.86
2023-03-10T12:29:47.989Z,982.88
2023-03-10T12:30:48.114Z,982.91
2023-03-10T12:31:48.355Z,982.94